createdAt,value
2022-12-22T00:02:19.816Z,1.10
2022-12-22T00:05:07.715Z,2.93
2022-12-22T00:07:53.604Z,2.50
2022-12-22T00:10:39.211Z,3.57
2022-12-22T00:13:28.047Z,2.03
2022-12-22T00:16:13.435Z,1.87
2022-12-22T00:18:58.566Z,1.57
2022-12-22T00:21:47.370Z,4.60
2022-12-22T00:24:32.709Z,1.20
2022-12-22T00:27:18.300Z,3.07
2022-12-22T00:30:03.749Z,3.77
2022-12-22T00:32:54.227Z,0.90
2022-12-22T00:35:42.217Z,2.63
2022-12-22T00:38:33.726Z,0.50
2022-12-22T00:41:18.908Z,1.73
2022-12-22T00:44:04.204Z,1.70
2022-12-22T00:46:50.687Z,1.20
2022-12-22T00:49:36.670Z,0.77
2022-12-22T00:52:22.559Z,2.03
2022-12-22T00:55:11.690Z,1.67
2022-12-22T00:57:57.412Z,1.70
2022-12-22T01:00:42.667Z,1.03
2022-12-22T01:03:29.669Z,1.83
2022-12-22T01:06:17.028Z,1.63
2022-12-22T01:09:02.279Z,0.90
2022-12-22T01:11:47.743Z,1.20
2022-12-22T01:14:35.129Z,2.20
2022-12-22T01:17:20.491Z,3.93
2022-12-22T01:20:06.078Z,3.57
2022-12-22T01:22:51.347Z,4.37
2022-12-22T01:25:37.681Z,1.53
2022-12-22T01:28:23.721Z,2.27
2022-12-22T01:31:09.750Z,3.23
2022-12-22T01:33:55.028Z,1.90
2022-12-22T01:36:40.359Z,2.57
2022-12-22T01:39:26.358Z,2.37
2022-12-22T01:42:11.726Z,1.30
2022-12-22T01:44:57.261Z,2.40
2022-12-22T01:47:48.313Z,1.80
2022-12-22T01:50:54.482Z,1.00
2022-12-22T01:53:43.038Z,2.47
2022-12-22T01:56:29.374Z,1.37
2022-12-22T01:59:17.659Z,2.97
2022-12-22T02:02:03.912Z,1.20
2022-12-22T02:04:54.961Z,1.43
2022-12-22T02:07:56.510Z,1.10
2022-12-22T02:11:05.132Z,1.70
2022-12-22T02:14:03.281Z,3.90
2022-12-22T02:17:13.021Z,2.10
2022-12-22T02:20:10.575Z,1.30
2022-12-22T02:23:27.043Z,2.30
2022-12-22T02:26:22.375Z,1.97
2022-12-22T02:29:09.840Z,1.57
2022-12-22T02:31:59.286Z,1.40
2022-12-22T02:34:44.617Z,3.07
2022-12-22T02:37:47.988Z,1.73
2022-12-22T02:40:50.126Z,3.03
2022-12-22T02:43:45.875Z,3.10
2022-12-22T02:46:47.390Z,2.00
2022-12-22T02:49:42.867Z,1.87
2022-12-22T02:52:35.922Z,2.13
2022-12-22T02:55:22.408Z,2.57
2022-12-22T02:58:11.341Z,2.57
2022-12-22T03:00:57.824Z,4.00
2022-12-22T03:03:43.633Z,3.27
2022-12-22T03:06:28.775Z,4.47
2022-12-22T03:09:14.254Z,2.03
2022-12-22T03:11:59.805Z,4.37
2022-12-22T03:14:45.284Z,6.97
2022-12-22T03:17:30.869Z,3.47
2022-12-22T03:20:16.354Z,2.43
2022-12-22T03:23:01.971Z,5.93
2022-12-22T03:25:47.339Z,3.77
2022-12-22T03:28:14.012Z,4.37
2022-12-22T03:30:40.745Z,6.73
2022-12-22T03:33:07.489Z,3.33
2022-12-22T03:35:34.201Z,3.30
2022-12-22T03:38:03.290Z,5.63
2022-12-22T03:40:33.462Z,1.70
2022-12-22T03:43:19.124Z,8.60
2022-12-22T03:46:04.433Z,2.27
2022-12-22T03:48:31.107Z,6.03
2022-12-22T03:50:57.777Z,2.73
2022-12-22T03:53:24.483Z,1.93
2022-12-22T03:55:51.150Z,4.07
2022-12-22T03:58:17.849Z,4.37
2022-12-22T04:00:44.612Z,2.20
2022-12-22T04:03:11.586Z,4.50
2022-12-22T04:05:38.345Z,1.63
2022-12-22T04:08:05.281Z,2.67
2022-12-22T04:10:50.604Z,1.93
2022-12-22T04:13:17.339Z,2.30
2022-12-22T04:15:44.065Z,2.63
2022-12-22T04:18:10.807Z,3.37
2022-12-22T04:20:37.468Z,0.90
2022-12-22T04:23:04.318Z,1.03
2022-12-22T04:25:31.015Z,1.00
2022-12-22T04:27:58.682Z,2.13
2022-12-22T04:30:25.384Z,0.63
2022-12-22T04:32:52.035Z,1.10
2022-12-22T04:35:18.723Z,0.93
2022-12-22T04:37:45.361Z,0.93
2022-12-22T04:40:12.151Z,1.23
2022-12-22T04:42:38.850Z,2.53
2022-12-22T04:45:06.305Z,1.13
2022-12-22T04:47:32.995Z,3.27
2022-12-22T04:50:00.001Z,2.63
2022-12-22T04:52:26.773Z,1.03
2022-12-22T04:54:53.522Z,1.93
2022-12-22T04:57:21.331Z,1.27
2022-12-22T04:59:48.050Z,2.80
2022-12-22T05:02:14.869Z,1.80
2022-12-22T05:04:41.635Z,2.50
2022-12-22T05:07:08.317Z,3.43
2022-12-22T05:09:35.273Z,1.70
2022-12-22T05:12:21.925Z,2.87
2022-12-22T05:14:48.676Z,2.20
2022-12-22T05:17:15.342Z,3.40
2022-12-22T05:19:42.132Z,3.17
2022-12-22T05:22:08.811Z,2.57
2022-12-22T05:24:35.482Z,3.17
2022-12-22T05:27:02.172Z,0.93
2022-12-22T05:29:28.853Z,2.63
2022-12-22T05:31:55.534Z,3.37
2022-12-22T05:34:22.258Z,3.57
2022-12-22T05:36:48.916Z,3.90
2022-12-22T05:39:15.606Z,3.30
2022-12-22T05:41:42.218Z,2.93
2022-12-22T05:44:08.920Z,3.63
2022-12-22T05:46:35.611Z,1.97
2022-12-22T05:49:02.418Z,4.80
2022-12-22T05:51:29.144Z,4.30
2022-12-22T05:53:55.810Z,5.60
2022-12-22T05:56:22.520Z,2.17
2022-12-22T05:58:49.206Z,2.33
2022-12-22T06:01:15.819Z,2.43
2022-12-22T06:03:42.648Z,2.80
2022-12-22T06:06:09.396Z,5.47
2022-12-22T06:08:36.143Z,4.60
2022-12-22T06:11:02.927Z,4.37
2022-12-22T06:13:29.732Z,2.90
2022-12-22T06:15:56.487Z,2.40
2022-12-22T06:18:23.446Z,2.83
2022-12-22T06:20:53.526Z,3.87
2022-12-22T06:23:21.824Z,5.90
2022-12-22T06:25:59.067Z,4.80
2022-12-22T06:28:26.552Z,5.97
2022-12-22T06:30:55.125Z,3.73
2022-12-22T06:33:22.216Z,4.03
2022-12-22T06:35:57.196Z,3.77
2022-12-22T06:38:25.363Z,2.00
2022-12-22T06:40:52.021Z,5.40
2022-12-22T06:43:19.208Z,4.23
2022-12-22T06:45:45.990Z,5.57
2022-12-22T06:48:13.392Z,1.77
2022-12-22T06:50:40.744Z,3.03
2022-12-22T06:53:08.370Z,4.03
2022-12-22T06:55:36.210Z,5.87
2022-12-22T06:58:03.516Z,4.03
2022-12-22T07:00:30.324Z,4.00
2022-12-22T07:02:57.182Z,8.43
2022-12-22T07:05:24.511Z,5.07
2022-12-22T07:07:52.229Z,3.47
2022-12-22T07:10:19.327Z,3.60
2022-12-22T07:12:46.053Z,5.70
2022-12-22T07:15:12.767Z,4.63
2022-12-22T07:17:41.520Z,4.53
2022-12-22T07:20:08.840Z,7.70
2022-12-22T07:22:35.503Z,4.17
2022-12-22T07:25:02.186Z,7.30
2022-12-22T07:27:28.837Z,6.23
2022-12-22T07:29:55.505Z,8.60
2022-12-22T07:32:22.177Z,6.50
2022-12-22T07:34:48.847Z,6.93
2022-12-22T07:37:15.473Z,8.33
2022-12-22T07:39:42.149Z,6.37
2022-12-22T07:42:30.727Z,10.87
2022-12-22T07:44:57.509Z,8.43
2022-12-22T07:47:25.414Z,9.20
2022-12-22T07:50:13.688Z,10.03
2022-12-22T07:52:40.427Z,12.03
2022-12-22T07:55:08.013Z,15.77
2022-12-22T07:57:35.940Z,15.10
2022-12-22T08:00:03.850Z,11.17
2022-12-22T08:02:39.672Z,13.27
2022-12-22T08:05:07.830Z,11.83
2022-12-22T08:07:34.675Z,8.27
2022-12-22T08:10:01.743Z,11.77
2022-12-22T08:12:29.738Z,8.90
2022-12-22T08:14:56.664Z,12.40
2022-12-22T08:17:23.311Z,12.00
2022-12-22T08:19:49.954Z,8.70
2022-12-22T08:22:16.623Z,6.80
2022-12-22T08:24:43.286Z,9.57
2022-12-22T08:27:19.514Z,10.77
2022-12-22T08:29:55.479Z,9.83
2022-12-22T08:32:22.152Z,7.50
2022-12-22T08:34:50.782Z,10.43
2022-12-22T08:37:21.676Z,9.17
2022-12-22T08:39:51.656Z,10.90
2022-12-22T08:42:22.024Z,15.93
2022-12-22T08:44:53.108Z,11.97
2022-12-22T08:47:23.336Z,5.90
2022-12-22T08:49:50.341Z,9.23
2022-12-22T08:52:18.653Z,7.07
2022-12-22T08:54:46.141Z,7.00
2022-12-22T08:57:12.812Z,12.87
2022-12-22T08:59:39.509Z,10.70
2022-12-22T09:02:06.679Z,8.83
2022-12-22T09:04:33.905Z,6.07
2022-12-22T09:07:02.557Z,9.37
2022-12-22T09:09:32.803Z,11.70
2022-12-22T09:12:00.220Z,4.83
2022-12-22T09:14:28.170Z,4.47
2022-12-22T09:16:55.043Z,5.03
2022-12-22T09:19:21.767Z,5.83
2022-12-22T09:21:48.447Z,3.83
2022-12-22T09:24:15.632Z,4.77
2022-12-22T09:26:42.930Z,5.47
2022-12-22T09:29:09.815Z,5.63
2022-12-22T09:31:36.673Z,2.87
2022-12-22T09:34:03.473Z,3.37
2022-12-22T09:36:31.487Z,4.20
2022-12-22T09:38:58.168Z,4.17
2022-12-22T09:41:24.785Z,2.00
2022-12-22T09:43:51.557Z,2.23
2022-12-22T09:46:23.157Z,1.83
2022-12-22T09:48:50.006Z,2.93
2022-12-22T09:51:22.676Z,2.63
2022-12-22T09:53:56.953Z,2.73
2022-12-22T09:56:25.233Z,4.60
2022-12-22T09:58:52.163Z,6.20
2022-12-22T10:01:34.236Z,3.60
2022-12-22T10:04:04.332Z,1.87
2022-12-22T10:06:47.004Z,4.63
2022-12-22T10:12:16.686Z,1.87
2022-12-22T10:14:47.047Z,1.70
2022-12-22T10:17:34.278Z,1.20
2022-12-22T10:20:25.405Z,2.00
2022-12-22T10:22:58.549Z,2.13
2022-12-22T10:26:17.281Z,1.97
2022-12-22T10:28:29.074Z,1.73
2022-12-22T10:31:10.879Z,2.30
2022-12-22T10:33:45.810Z,2.47
2022-12-22T10:36:34.803Z,1.57
2022-12-22T10:39:10.314Z,2.87
2022-12-22T10:41:49.493Z,1.17
2022-12-22T10:44:16.131Z,1.13
2022-12-22T10:46:46.151Z,1.40
2022-12-22T10:49:23.909Z,2.80
2022-12-22T10:52:29.508Z,2.40
2022-12-22T10:55:20.735Z,0.60
2022-12-22T10:57:48.257Z,2.90
2022-12-22T11:00:31.837Z,0.70
2022-12-22T11:03:00.935Z,0.50
2022-12-22T11:05:28.666Z,1.97
2022-12-22T11:07:56.012Z,0.50
2022-12-22T11:10:46.287Z,0.80
2022-12-22T11:13:37.828Z,0.73
2022-12-22T11:16:36.193Z,1.87
2022-12-22T11:19:46.334Z,1.07
2022-12-22T11:22:26.460Z,1.73
2022-12-22T11:25:06.523Z,0.77
2022-12-22T11:27:49.304Z,0.80
2022-12-22T11:30:24.006Z,1.17
2022-12-22T11:33:12.429Z,1.60
2022-12-22T11:36:13.925Z,2.33
2022-12-22T11:38:53.879Z,1.40
2022-12-22T11:41:44.600Z,0.50
2022-12-22T11:44:30.614Z,3.03
2022-12-22T11:47:22.881Z,1.13
2022-12-22T11:51:00.213Z,1.30
2022-12-22T11:53:18.953Z,0.30
2022-12-22T11:56:12.860Z,1.07
2022-12-22T11:58:54.545Z,0.70
2022-12-22T12:01:54.442Z,1.43
2022-12-22T12:04:42.639Z,0.80
2022-12-22T12:07:29.631Z,1.93
2022-12-22T12:10:16.702Z,2.10
2022-12-22T12:12:55.377Z,2.90
2022-12-22T12:15:28.920Z,0.73
2022-12-22T12:18:04.298Z,0.57
2022-12-22T12:20:51.613Z,0.60
2022-12-22T12:23:42.052Z,0.43
2022-12-22T12:26:21.374Z,0.60
2022-12-22T12:29:11.039Z,0.50
2022-12-22T12:31:43.743Z,0.30
2022-12-22T12:34:14.472Z,0.93
2022-12-22T12:36:57.549Z,0.77
2022-12-22T12:39:38.872Z,0.50
2022-12-22T12:42:33.430Z,1.03
2022-12-22T12:45:02.319Z,0.30
2022-12-22T12:47:31.268Z,0.30
2022-12-22T12:50:17.585Z,0.93
2022-12-22T12:52:48.493Z,0.90
2022-12-22T12:55:32.576Z,0.70
2022-12-22T12:58:03.289Z,3.60
2022-12-22T13:00:33.237Z,1.30
2022-12-22T13:03:19.898Z,1.50
2022-12-22T13:06:03.211Z,1.17
2022-12-22T13:09:03.024Z,2.17
2022-12-22T13:14:58.859Z,0.40
2022-12-22T13:17:41.316Z,1.63
2022-12-22T13:20:25.078Z,0.70
2022-12-22T13:22:54.145Z,0.30
2022-12-22T13:25:22.743Z,0.30
2022-12-22T13:27:50.721Z,0.40
2022-12-22T13:30:20.628Z,1.30
2022-12-22T13:32:49.785Z,0.77
2022-12-22T13:35:38.499Z,0.97
2022-12-22T13:38:31.212Z,0.97
2022-12-22T13:41:00.194Z,1.80
2022-12-22T13:43:28.596Z,1.20
2022-12-22T13:46:00.916Z,1.03
2022-12-22T13:48:43.950Z,1.13
2022-12-22T13:51:22.597Z,0.30
2022-12-22T13:54:09.294Z,0.40
2022-12-22T13:56:45.881Z,1.13
2022-12-22T13:59:21.125Z,0.60
2022-12-22T14:01:56.268Z,0.80
2022-12-22T14:04:23.224Z,0.30
2022-12-22T14:06:50.026Z,0.83
2022-12-22T14:09:19.508Z,1.27
2022-12-22T14:11:53.218Z,0.60
2022-12-22T14:14:24.450Z,1.07
2022-12-22T14:16:54.053Z,1.50
2022-12-22T14:19:22.092Z,0.93
2022-12-22T14:22:09.764Z,0.40
2022-12-22T14:24:44.358Z,0.50
2022-12-22T14:27:44.090Z,2.10
2022-12-22T14:30:23.167Z,5.77
2022-12-22T14:32:55.396Z,1.30
2022-12-22T14:35:22.524Z,1.23
2022-12-22T14:37:50.515Z,0.80
2022-12-22T14:40:38.644Z,5.43
2022-12-22T14:43:14.134Z,3.73
2022-12-22T14:45:41.013Z,1.20
2022-12-22T14:48:10.007Z,2.27
2022-12-22T14:50:36.989Z,2.53
2022-12-22T14:53:05.232Z,1.27
2022-12-22T14:55:38.815Z,1.40
2022-12-22T14:58:14.077Z,2.27
2022-12-22T15:00:46.684Z,4.10
2022-12-22T15:03:25.567Z,1.87
2022-12-22T15:05:53.242Z,6.30
2022-12-22T15:08:43.171Z,3.07
2022-12-22T15:11:17.336Z,1.13
2022-12-22T15:13:46.763Z,2.60
2022-12-22T15:16:17.772Z,1.80
2022-12-22T15:18:45.725Z,1.63
2022-12-22T15:21:14.026Z,2.67
2022-12-22T15:23:41.061Z,3.70
2022-12-22T15:26:07.765Z,4.50
2022-12-22T15:28:34.450Z,4.27
2022-12-22T15:31:02.557Z,5.00
2022-12-22T15:33:30.880Z,3.70
2022-12-22T15:35:57.625Z,6.03
2022-12-22T15:38:25.535Z,4.60
2022-12-22T15:40:52.491Z,3.50
2022-12-22T15:46:07.236Z,10.47
2022-12-22T15:48:36.301Z,8.77
2022-12-22T15:51:05.840Z,9.87
2022-12-22T15:53:33.667Z,18.50
2022-12-22T15:56:01.056Z,22.63
2022-12-22T15:58:32.959Z,26.87
2022-12-22T16:00:59.719Z,25.03
2022-12-22T16:03:26.491Z,21.73
2022-12-22T16:05:54.428Z,22.00
2022-12-22T16:08:30.407Z,24.57
2022-12-22T16:10:57.209Z,21.80
2022-12-22T16:13:27.068Z,20.53
2022-12-22T16:15:56.429Z,25.83
2022-12-22T16:18:23.286Z,21.00
2022-12-22T16:20:50.648Z,23.67
2022-12-22T16:23:20.728Z,27.13
2022-12-22T16:25:47.725Z,40.40
2022-12-22T16:28:18.573Z,31.47
2022-12-22T16:30:45.691Z,25.27
2022-12-22T16:33:12.933Z,29.33
2022-12-22T16:35:39.948Z,24.13
2022-12-22T16:38:07.189Z,28.63
2022-12-22T16:40:42.018Z,25.00
2022-12-22T16:46:15.501Z,41.93
2022-12-22T16:48:54.136Z,25.53
2022-12-22T16:51:27.979Z,43.90
2022-12-22T16:53:54.795Z,35.20
2022-12-22T16:56:26.548Z,36.27
2022-12-22T16:58:53.335Z,27.00
2022-12-22T17:01:29.274Z,31.00
2022-12-22T17:03:57.921Z,30.00
2022-12-22T17:06:24.695Z,25.30
2022-12-22T17:08:51.606Z,37.17
2022-12-22T17:11:27.379Z,28.67
2022-12-22T17:14:07.316Z,32.97
2022-12-22T17:16:34.144Z,33.80
2022-12-22T17:19:00.898Z,36.80
2022-12-22T17:21:29.625Z,34.37
2022-12-22T17:24:03.682Z,33.73
2022-12-22T17:26:32.820Z,30.97
2022-12-22T17:28:59.786Z,30.07
2022-12-22T17:31:27.015Z,36.67
2022-12-22T17:33:53.812Z,28.27
2022-12-22T17:36:27.868Z,29.23
2022-12-22T17:38:54.729Z,29.10
2022-12-22T17:41:21.437Z,27.53
2022-12-22T17:43:48.052Z,32.67
2022-12-22T17:46:17.668Z,33.73
2022-12-22T17:48:45.166Z,35.23
2022-12-22T17:51:27.110Z,35.07
2022-12-22T17:53:56.447Z,33.17
2022-12-22T17:56:25.653Z,30.17
2022-12-22T17:58:52.802Z,30.70
2022-12-22T18:01:39.272Z,30.43
2022-12-22T18:04:09.773Z,27.87
2022-12-22T18:06:39.408Z,34.37
2022-12-22T18:09:07.106Z,29.93
2022-12-22T18:11:34.252Z,32.20
2022-12-22T18:14:01.147Z,27.73
2022-12-22T18:16:28.555Z,34.63
2022-12-22T18:18:55.509Z,24.03
2022-12-22T18:21:24.609Z,25.40
2022-12-22T18:23:51.778Z,31.10
2022-12-22T18:26:27.169Z,29.17
2022-12-22T18:28:54.947Z,27.70
2022-12-22T18:31:22.923Z,24.73
2022-12-22T18:33:49.991Z,26.17
2022-12-22T18:36:18.302Z,25.00
2022-12-22T18:38:46.228Z,14.43
2022-12-22T18:41:21.743Z,25.00
2022-12-22T18:43:48.986Z,19.93
2022-12-22T18:46:16.340Z,19.07
2022-12-22T18:48:43.195Z,17.47
2022-12-22T18:51:27.882Z,19.67
2022-12-22T18:53:54.818Z,19.37
2022-12-22T18:56:21.987Z,18.73
2022-12-22T18:58:48.871Z,19.70
2022-12-22T19:01:22.059Z,16.50
2022-12-22T19:03:50.713Z,14.53
2022-12-22T19:06:19.745Z,14.30
2022-12-22T19:08:49.695Z,18.53
2022-12-22T19:11:21.221Z,9.97
2022-12-22T19:13:49.628Z,15.17
2022-12-22T19:16:19.051Z,12.40
2022-12-22T19:18:45.713Z,11.90
2022-12-22T19:21:17.649Z,12.07
2022-12-22T19:23:45.100Z,13.30
2022-12-22T19:26:22.316Z,12.33
2022-12-22T19:28:52.353Z,12.80
2022-12-22T19:31:28.964Z,10.27
2022-12-22T19:33:57.795Z,12.57
2022-12-22T19:36:26.905Z,11.67
2022-12-22T19:39:02.733Z,12.63
2022-12-22T19:41:43.578Z,11.83
2022-12-22T19:44:29.941Z,12.83
2022-12-22T19:46:59.246Z,9.23
2022-12-22T19:49:27.805Z,14.53
2022-12-22T19:51:58.398Z,12.00
2022-12-22T19:54:25.265Z,12.73
2022-12-22T19:56:55.108Z,9.33
2022-12-22T19:59:39.157Z,9.63
2022-12-22T20:02:21.817Z,10.67
2022-12-22T20:04:49.990Z,8.30
2022-12-22T20:07:19.811Z,8.97
2022-12-22T20:09:46.633Z,12.90
2022-12-22T20:12:33.037Z,9.23
2022-12-22T20:15:00.532Z,10.23
2022-12-22T20:17:27.560Z,7.23
2022-12-22T20:19:54.270Z,7.87
2022-12-22T20:22:22.730Z,10.30
2022-12-22T20:24:50.509Z,8.67
2022-12-22T20:27:34.492Z,10.03
2022-12-22T20:30:01.482Z,7.87
2022-12-22T20:32:28.781Z,8.33
2022-12-22T20:34:56.156Z,8.77
2022-12-22T20:37:22.887Z,5.77
2022-12-22T20:39:49.569Z,6.10
2022-12-22T20:42:21.204Z,5.40
2022-12-22T20:45:02.569Z,5.03
2022-12-22T20:47:32.108Z,11.03
2022-12-22T20:49:59.369Z,6.53
2022-12-22T20:52:26.080Z,6.27
2022-12-22T20:54:52.751Z,7.30
2022-12-22T20:57:21.389Z,9.80
2022-12-22T20:59:53.914Z,11.07
2022-12-22T21:02:27.428Z,5.23
2022-12-22T21:04:54.625Z,5.63
2022-12-22T21:07:21.260Z,10.87
2022-12-22T21:09:47.939Z,8.00
2022-12-22T21:12:14.668Z,7.10
2022-12-22T21:14:41.297Z,7.73
2022-12-22T21:17:16.029Z,8.20
2022-12-22T21:19:42.929Z,8.07
2022-12-22T21:22:09.652Z,9.97
2022-12-22T21:24:36.407Z,10.70
2022-12-22T21:27:03.716Z,8.67
2022-12-22T21:29:31.073Z,11.03
2022-12-22T21:31:57.748Z,12.47
2022-12-22T21:34:24.420Z,7.40
2022-12-22T21:36:58.855Z,7.67
2022-12-22T21:39:36.882Z,7.30
2022-12-22T21:42:05.196Z,8.23
2022-12-22T21:44:34.439Z,5.60
2022-12-22T21:47:01.905Z,6.07
2022-12-22T21:49:31.266Z,5.07
2022-12-22T21:51:58.129Z,5.00
2022-12-22T21:54:26.023Z,7.20
2022-12-22T21:56:54.104Z,4.50
2022-12-22T21:59:21.422Z,5.90
2022-12-22T22:01:48.338Z,3.10
2022-12-22T22:04:15.015Z,6.40
2022-12-22T22:06:41.701Z,5.13
2022-12-22T22:09:08.358Z,3.97
2022-12-22T22:11:57.806Z,4.03
2022-12-22T22:14:25.597Z,3.70
2022-12-22T22:16:52.320Z,3.33
2022-12-22T22:19:18.978Z,2.50
2022-12-22T22:21:46.136Z,5.90
2022-12-22T22:24:13.658Z,6.57
2022-12-22T22:26:40.383Z,3.30
2022-12-22T22:29:07.303Z,3.93
2022-12-22T22:31:34.152Z,6.43
2022-12-22T22:34:00.892Z,3.77
2022-12-22T22:36:27.621Z,2.83
2022-12-22T22:38:54.328Z,8.40
2022-12-22T22:41:21.075Z,3.57
2022-12-22T22:43:47.847Z,5.23
2022-12-22T22:46:14.605Z,3.90
2022-12-22T22:48:41.272Z,5.83
2022-12-22T22:51:10.179Z,2.47
2022-12-22T22:53:36.873Z,4.13
2022-12-22T22:56:04.145Z,5.03
2022-12-22T22:58:30.865Z,4.30
2022-12-22T23:01:05.037Z,5.00
2022-12-22T23:03:31.831Z,7.47
2022-12-22T23:06:06.989Z,5.83
2022-12-22T23:08:34.547Z,8.37
2022-12-22T23:11:02.134Z,4.77
2022-12-22T23:13:29.131Z,8.03
2022-12-22T23:16:01.711Z,7.27
2022-12-22T23:18:29.734Z,5.30
2022-12-22T23:21:01.387Z,6.03
2022-12-22T23:23:29.177Z,5.77
2022-12-22T23:25:56.100Z,5.13
2022-12-22T23:28:22.868Z,4.20
2022-12-22T23:30:51.449Z,5.63
2022-12-22T23:33:19.938Z,5.17
2022-12-22T23:35:48.630Z,5.37
2022-12-22T23:38:17.127Z,4.17
2022-12-22T23:40:52.905Z,4.87
2022-12-22T23:43:20.489Z,3.93
2022-12-22T23:45:47.171Z,1.77
2022-12-22T23:48:13.927Z,3.77
2022-12-22T23:50:40.623Z,2.40
2022-12-22T23:53:07.390Z,2.23
2022-12-22T23:55:34.064Z,2.40
2022-12-22T23:58:00.725Z,1.97
